Time;durP1;ratioP1;P1;durP2;ratioP2;P2;SDS_P1;SDS_P2;PMS_P1;PMS_P2;Temp;Humidity;BMP_temperature;BMP_pressure;BME280_temperature;BME280_humidity;BME280_pressure;Samples;Min_cycle;Max_cycle;Signal;HPM_P1;HPM_P2
2022/11/20 00:01:24;;;;;;;17.05;15.88;;;1.60;99.90;;;;;;5048332;28;20041;-85
2022/11/20 00:03:52;;;;;;;32.88;31.13;;;1.80;99.90;;;;;;5055777;28;20032;-85
2022/11/20 00:06:19;;;;;;;29.20;27.77;;;1.90;99.90;;;;;;5042180;28;20032;-84
2022/11/20 00:08:45;;;;;;;44.08;42.03;;;2.10;99.90;;;;;;5035307;28;20116;-85
2022/11/20 00:11:13;;;;;;;47.92;45.22;;;2.20;99.90;;;;;;5051533;28;20558;-84
2022/11/20 00:13:39;;;;;;;34.55;32.95;;;2.20;99.90;;;;;;5060734;28;20081;-85
2022/11/20 00:16:07;;;;;;;33.90;32.15;;;2.30;99.90;;;;;;5039133;28;20025;-84
2022/11/20 00:18:34;;;;;;;37.40;35.58;;;2.20;99.90;;;;;;5058469;28;20613;-85
2022/11/20 00:21:03;;;;;;;24.08;22.92;;;2.10;99.90;;;;;;5045171;28;20059;-85
2022/11/20 00:23:29;;;;;;;23.35;22.10;;;2.10;99.90;;;;;;5052108;28;20369;-87
2022/11/20 00:25:54;;;;;;;33.17;31.20;;;2.00;99.90;;;;;;5059555;28;20020;-86
2022/11/20 00:28:20;;;;;;;26.85;25.15;;;2.10;99.90;;;;;;5063104;28;20166;-85
2022/11/20 00:30:48;;;;;;;33.80;32.00;;;2.10;99.90;;;;;;5058437;28;20045;-85
2022/11/20 00:33:13;;;;;;;39.42;37.15;;;2.10;99.90;;;;;;5040630;28;20047;-85
2022/11/20 00:35:39;;;;;;;23.83;22.45;;;2.00;99.90;;;;;;5066599;28;20032;-86
2022/11/20 00:38:05;;;;;;;36.83;35.10;;;2.00;99.90;;;;;;5058102;28;20656;-85
2022/11/20 00:40:30;;;;;;;13.68;12.82;;;1.90;99.90;;;;;;5041050;28;20029;-85
2022/11/20 00:42:56;;;;;;;27.83;26.33;;;1.80;99.90;;;;;;5058960;28;20100;-82
2022/11/20 00:45:22;;;;;;;37.47;35.78;;;1.80;99.90;;;;;;5060687;28;20108;-83
2022/11/20 00:47:47;;;;;;;41.60;39.67;;;1.90;99.90;;;;;;5059873;28;20035;-82
2022/11/20 00:50:13;;;;;;;34.10;32.45;;;1.90;99.90;;;;;;5044734;28;20145;-84
2022/11/20 00:52:40;;;;;;;26.67;24.95;;;1.80;99.90;;;;;;5054344;28;20574;-86
2022/11/20 00:55:06;;;;;;;32.70;30.88;;;1.90;99.90;;;;;;5037103;28;20601;-85
2022/11/20 00:57:31;;;;;;;25.83;24.27;;;1.80;99.90;;;;;;5064494;28;20036;-87
2022/11/20 00:59:57;;;;;;;27.80;26.42;;;1.70;99.90;;;;;;5059737;28;20044;-85
2022/11/20 01:02:22;;;;;;;30.77;29.02;;;1.80;99.90;;;;;;5048372;28;20033;-84
2022/11/20 01:04:48;;;;;;;128.90;116.95;;;1.80;99.90;;;;;;5029350;28;20036;-82
2022/11/20 01:07:14;;;;;;;24.27;22.65;;;1.80;99.90;;;;;;5044160;28;20572;-84
2022/11/20 01:09:40;;;;;;;24.65;22.90;;;1.80;99.90;;;;;;5054669;28;20070;-85
2022/11/20 01:12:05;;;;;;;23.90;22.75;;;1.80;99.90;;;;;;5046581;28;20037;-86
2022/11/20 01:14:31;;;;;;;31.00;29.52;;;1.70;99.90;;;;;;5058224;28;20102;-82
2022/11/20 01:16:57;;;;;;;42.38;39.75;;;1.80;99.90;;;;;;5040627;28;20040;-83
2022/11/20 01:19:23;;;;;;;59.80;57.20;;;1.70;99.90;;;;;;5067964;28;20028;-85
2022/11/20 01:21:52;;;;;;;26.23;24.85;;;1.70;99.90;;;;;;5059705;28;20028;-83
2022/11/20 01:24:24;;;;;;;28.55;27.13;;;1.80;99.90;;;;;;5039092;28;20136;-83
2022/11/20 01:26:51;;;;;;;20.75;19.63;;;1.90;99.90;;;;;;5037605;28;20043;-82
2022/11/20 01:29:20;;;;;;;36.25;34.30;;;1.90;99.90;;;;;;5042497;28;20040;-85
2022/11/20 01:31:46;;;;;;;31.35;29.17;;;1.90;99.90;;;;;;5056712;28;20028;-83
2022/11/20 01:34:15;;;;;;;17.23;15.95;;;1.80;99.90;;;;;;5063486;28;20494;-84
2022/11/20 01:36:41;;;;;;;20.55;18.88;;;1.70;99.90;;;;;;5062975;28;20033;-85
2022/11/20 01:39:21;;;;;;;25.42;24.13;;;1.60;99.90;;;;;;5036550;28;20037;-83
2022/11/20 01:44:57;;;;;;;14.52;13.57;;;1.60;99.90;;;;;;5058157;28;20036;-85
2022/11/20 01:47:28;;;;;;;16.40;15.32;;;1.60;99.90;;;;;;5054351;28;20074;-82
2022/11/20 01:50:22;;;;;;;28.90;26.05;;;1.70;99.90;;;;;;5065814;28;20123;-84
2022/11/20 01:52:55;;;;;;;23.17;21.90;;;1.80;99.90;;;;;;5024831;28;20044;-83
2022/11/20 01:55:28;;;;;;;33.70;31.92;;;1.90;99.90;;;;;;5051356;28;20070;-82
2022/11/20 01:57:55;;;;;;;19.67;18.48;;;1.90;99.90;;;;;;5062967;28;20032;-84
2022/11/20 02:00:20;;;;;;;35.83;33.45;;;1.90;99.90;;;;;;5058055;28;20021;-81
2022/11/20 02:03:01;;;;;;;39.55;37.72;;;2.00;99.90;;;;;;5057282;28;20459;-82
2022/11/20 02:05:29;;;;;;;;;;;2.10;99.90;;;;;;5061424;28;20028;-84
2022/11/20 02:07:57;;;;;;;14.25;13.20;;;2.20;99.90;;;;;;5057077;28;19919;-87
2022/11/20 02:10:23;;;;;;;13.75;12.77;;;2.20;99.90;;;;;;5034517;28;20639;-83
2022/11/20 02:15:33;;;;;;;25.70;24.25;;;2.20;99.90;;;;;;5041610;28;20449;-81
2022/11/20 02:17:59;;;;;;;23.20;21.95;;;2.20;99.90;;;;;;5052992;28;20033;-83
2022/11/20 02:20:25;;;;;;;17.70;16.27;;;2.20;99.90;;;;;;5055692;28;20040;-85
2022/11/20 02:22:57;;;;;;;20.65;19.35;;;2.20;99.90;;;;;;5055119;28;20036;-83
2022/11/20 02:25:26;;;;;;;107.65;100.22;;;2.20;99.90;;;;;;5021155;28;20834;-80
2022/11/20 02:27:52;;;;;;;42.38;40.25;;;2.30;99.90;;;;;;5042620;28;20114;-83
2022/11/20 02:30:18;;;;;;;36.67;34.88;;;2.20;99.90;;;;;;5057046;28;20083;-83
2022/11/20 02:32:43;;;;;;;16.73;15.32;;;2.20;99.90;;;;;;5035518;28;20077;-85
2022/11/20 02:35:19;;;;;;;41.33;39.47;;;2.20;99.90;;;;;;5040070;28;20115;-81
2022/11/20 02:37:52;;;;;;;109.65;101.63;;;2.30;99.90;;;;;;5038693;28;20063;-81
2022/11/20 02:40:18;;;;;;;29.73;28.17;;;2.30;99.90;;;;;;5056618;28;20036;-84
2022/11/20 02:42:44;;;;;;;34.45;32.72;;;2.30;99.90;;;;;;5060429;28;20479;-82
2022/11/20 02:45:10;;;;;;;28.17;26.73;;;2.30;99.90;;;;;;5039135;28;20545;-85
2022/11/20 02:47:36;;;;;;;39.97;38.20;;;2.30;99.90;;;;;;5034774;28;20036;-83
2022/11/20 02:50:03;;;;;;;42.17;40.28;;;2.40;99.90;;;;;;5061311;28;20356;-84
2022/11/20 02:52:30;;;;;;;35.55;33.42;;;2.50;99.90;;;;;;5054909;28;20072;-83
2022/11/20 02:54:56;;;;;;;22.05;20.60;;;2.40;99.90;;;;;;5046904;28;20059;-83
2022/11/20 02:57:22;;;;;;;27.75;26.33;;;2.30;99.90;;;;;;5006985;28;20502;-81
2022/11/20 02:59:47;;;;;;;29.35;27.73;;;2.20;99.90;;;;;;5058101;28;20024;-83
2022/11/20 03:02:13;;;;;;;17.40;16.25;;;2.20;99.90;;;;;;5036130;28;20542;-84
2022/11/20 03:04:38;;;;;;;22.50;21.17;;;2.10;99.90;;;;;;5043436;28;20487;-84
2022/11/20 03:07:04;;;;;;;20.33;19.10;;;2.20;99.90;;;;;;5055832;28;20102;-87
2022/11/20 03:09:30;;;;;;;36.05;33.95;;;2.20;99.90;;;;;;5038557;28;20029;-81
2022/11/20 03:11:56;;;;;;;26.42;24.85;;;2.30;99.90;;;;;;5065437;28;20036;-87
2022/11/20 03:14:22;;;;;;;26.60;25.00;;;2.30;99.90;;;;;;5057553;28;20091;-85
2022/11/20 03:16:47;;;;;;;32.28;30.77;;;2.40;99.90;;;;;;5055618;28;20140;-86
2022/11/20 03:19:14;;;;;;;22.75;21.05;;;2.40;99.90;;;;;;5063396;28;20033;-85
2022/11/20 03:21:40;;;;;;;27.83;26.23;;;2.40;99.90;;;;;;5055325;28;20184;-84
2022/11/20 03:24:07;;;;;;;25.45;24.10;;;2.40;99.90;;;;;;5050599;28;20427;-85
2022/11/20 03:26:32;;;;;;;99.97;95.25;;;2.40;99.90;;;;;;5045835;28;20033;-86
2022/11/20 03:29:00;;;;;;;41.83;39.53;;;2.50;99.90;;;;;;5056268;28;20688;-79
2022/11/20 03:31:32;;;;;;;27.58;25.30;;;2.50;99.90;;;;;;5050386;28;20056;-80
2022/11/20 03:33:59;;;;;;;22.95;21.67;;;2.60;99.90;;;;;;5046599;28;20036;-80
2022/11/20 03:36:26;;;;;;;72.97;68.70;;;2.60;99.90;;;;;;5039573;28;20035;-80
2022/11/20 03:38:53;;;;;;;38.55;36.67;;;2.70;99.90;;;;;;5049154;28;20037;-82
2022/11/20 03:41:27;;;;;;;17.48;16.58;;;2.60;99.90;;;;;;5059157;28;20127;-82
2022/11/20 03:44:02;;;;;;;49.08;46.83;;;2.60;99.90;;;;;;5055812;28;20422;-81
2022/11/20 03:46:28;;;;;;;27.25;25.90;;;2.60;99.90;;;;;;5053549;28;20502;-79
2022/11/20 03:48:54;;;;;;;36.45;34.55;;;2.70;99.90;;;;;;5045963;28;20033;-82
2022/11/20 03:51:22;;;;;;;30.38;28.75;;;2.70;99.90;;;;;;5020582;28;20044;-81
2022/11/20 03:53:49;;;;;;;46.60;44.05;;;2.80;99.90;;;;;;5046521;28;20076;-84
2022/11/20 03:56:17;;;;;;;34.63;32.80;;;2.80;99.90;;;;;;5041732;28;20082;-82
2022/11/20 03:58:46;;;;;;;30.10;28.42;;;2.80;99.90;;;;;;5043277;28;20022;-80
2022/11/20 04:01:15;;;;;;;20.38;19.20;;;2.90;99.90;;;;;;5042133;28;20040;-80
2022/11/20 04:03:42;;;;;;;62.30;58.70;;;2.90;99.90;;;;;;5055106;28;20105;-79
2022/11/20 04:06:13;;;;;;;43.58;41.47;;;2.90;99.90;;;;;;5061914;28;20051;-80
2022/11/20 04:08:40;;;;;;;23.13;21.85;;;2.90;99.90;;;;;;5057278;28;20111;-82
2022/11/20 04:11:11;;;;;;;26.52;25.08;;;2.90;99.90;;;;;;5064001;28;20036;-81
2022/11/20 04:13:37;;;;;;;26.88;25.17;;;2.90;99.90;;;;;;5059385;28;20028;-81
2022/11/20 04:16:05;;;;;;;194.82;91.88;;;2.80;99.90;;;;;;5054250;28;20406;-84
2022/11/20 04:18:32;;;;;;;66.32;63.35;;;2.90;99.90;;;;;;5045254;28;20033;-82
2022/11/20 04:20:58;;;;;;;36.92;35.00;;;2.90;99.90;;;;;;5043976;28;20044;-85
2022/11/20 04:23:25;;;;;;;60.80;56.95;;;2.80;99.90;;;;;;5054570;28;20021;-82
2022/11/20 04:25:51;;;;;;;67.78;64.03;;;2.90;99.90;;;;;;5038213;28;20024;-84
2022/11/20 04:28:18;;;;;;;124.05;112.47;;;3.00;99.90;;;;;;5021513;28;20421;-81
2022/11/20 04:30:43;;;;;;;84.40;79.85;;;2.90;99.90;;;;;;5060895;28;20041;-83
2022/11/20 04:33:09;;;;;;;102.68;96.65;;;2.80;99.90;;;;;;5041378;28;20040;-85
2022/11/20 04:35:35;;;;;;;88.85;83.90;;;2.80;99.90;;;;;;5061576;28;20437;-81
2022/11/20 04:38:01;;;;;;;148.18;137.35;;;2.80;99.90;;;;;;5049662;28;20115;-86
2022/11/20 04:40:27;;;;;;;54.25;51.38;;;2.80;99.90;;;;;;5063328;28;20543;-84
2022/11/20 04:42:54;;;;;;;41.47;39.33;;;2.80;99.90;;;;;;5055428;28;20025;-82
2022/11/20 04:45:20;;;;;;;40.53;38.63;;;2.80;99.90;;;;;;5051824;28;20032;-83
2022/11/20 04:47:45;;;;;;;46.28;43.70;;;2.80;99.90;;;;;;5061336;28;20025;-81
2022/11/20 04:50:11;;;;;;;44.58;42.17;;;2.80;99.90;;;;;;5046028;28;20067;-83
2022/11/20 04:52:37;;;;;;;39.38;37.03;;;2.80;99.90;;;;;;4992100;28;1323570;-85
2022/11/20 04:55:02;;;;;;;41.10;39.13;;;2.70;99.90;;;;;;5036619;28;20095;-82
2022/11/20 04:57:28;;;;;;;52.08;49.53;;;2.70;99.90;;;;;;5051651;28;20083;-84
2022/11/20 04:59:54;;;;;;;22.42;20.73;;;2.70;99.90;;;;;;5040467;28;20044;-85
2022/11/20 05:02:20;;;;;;;23.20;21.45;;;2.70;99.90;;;;;;5017895;28;20029;-88
2022/11/20 05:04:46;;;;;;;26.65;24.88;;;2.70;99.90;;;;;;5016138;28;20098;-84
2022/11/20 05:07:11;;;;;;;43.22;41.17;;;2.70;99.90;;;;;;5039420;28;21344;-83
2022/11/20 05:09:37;;;;;;;25.33;23.75;;;2.80;99.90;;;;;;5030961;28;20479;-83
2022/11/20 05:12:03;;;;;;;22.80;21.50;;;2.80;99.90;;;;;;5041168;28;20442;-86
2022/11/20 05:14:29;;;;;;;46.00;43.28;;;2.80;99.90;;;;;;5048366;28;20063;-83
2022/11/20 05:16:57;;;;;;;43.75;41.60;;;2.80;99.90;;;;;;5020395;28;20037;-84
2022/11/20 05:19:23;;;;;;;71.40;65.35;;;2.90;99.90;;;;;;5043009;28;20116;-84
2022/11/20 05:21:49;;;;;;;23.90;22.45;;;2.90;99.90;;;;;;5038808;28;20124;-84
2022/11/20 05:24:15;;;;;;;20.27;18.98;;;2.90;99.90;;;;;;5050117;28;20047;-83
2022/11/20 05:26:41;;;;;;;20.95;19.17;;;2.90;99.90;;;;;;5027201;28;20116;-86
2022/11/20 05:29:09;;;;;;;21.38;20.13;;;2.90;99.90;;;;;;5023863;28;20662;-83
2022/11/20 05:31:35;;;;;;;43.67;41.55;;;2.90;99.90;;;;;;5036426;28;20487;-82
2022/11/20 05:34:01;;;;;;;22.40;20.63;;;2.90;99.90;;;;;;5028102;28;20738;-83
2022/11/20 05:36:27;;;;;;;25.90;24.45;;;2.90;99.90;;;;;;5040053;28;20036;-81
2022/11/20 05:38:52;;;;;;;22.55;20.98;;;2.80;99.90;;;;;;5050634;28;20052;-82
2022/11/20 05:41:19;;;;;;;20.38;18.98;;;2.90;99.90;;;;;;5041515;28;20112;-86
2022/11/20 05:43:46;;;;;;;20.13;18.85;;;2.90;99.90;;;;;;5051196;28;20037;-84
2022/11/20 05:46:14;;;;;;;26.48;25.02;;;2.90;99.90;;;;;;5036703;28;20625;-83
2022/11/20 05:48:41;;;;;;;47.03;44.28;;;2.90;99.90;;;;;;5046360;28;20127;-80
2022/11/20 05:51:10;;;;;;;61.03;55.90;;;2.90;99.90;;;;;;5049320;28;20043;-81
2022/11/20 05:53:37;;;;;;;48.88;46.72;;;2.90;99.90;;;;;;5046903;28;20754;-86
2022/11/20 05:56:09;;;;;;;26.80;25.25;;;2.90;99.90;;;;;;5050069;28;20040;-82
2022/11/20 05:58:37;;;;;;;19.55;18.27;;;2.80;99.90;;;;;;5049077;28;20028;-83
2022/11/20 06:01:05;;;;;;;28.48;26.75;;;2.90;99.90;;;;;;5046931;28;20075;-84
2022/11/20 06:03:30;;;;;;;84.50;79.90;;;2.90;99.90;;;;;;5032277;28;20494;-83
2022/11/20 06:05:58;;;;;;;14.45;13.35;;;2.90;99.90;;;;;;5032237;28;20082;-85
2022/11/20 06:08:23;;;;;;;23.00;21.63;;;2.90;99.90;;;;;;5050050;28;20149;-87
2022/11/20 06:10:49;;;;;;;28.33;26.88;;;2.80;99.90;;;;;;5031398;28;20672;-85
2022/11/20 06:13:15;;;;;;;18.50;17.23;;;2.60;99.90;;;;;;5049993;28;20036;-84
2022/11/20 06:15:40;;;;;;;21.55;20.38;;;2.60;99.90;;;;;;5050037;28;20067;-83
2022/11/20 06:18:06;;;;;;;21.52;19.70;;;2.50;99.90;;;;;;5048900;28;20061;-84
2022/11/20 06:20:31;;;;;;;16.98;15.98;;;2.40;99.90;;;;;;5049408;28;20029;-85
2022/11/20 06:22:57;;;;;;;72.43;67.15;;;2.40;99.90;;;;;;5031784;28;20035;-82
2022/11/20 06:25:23;;;;;;;140.15;128.52;;;2.40;99.90;;;;;;5031646;28;20033;-81
2022/11/20 06:27:48;;;;;;;17.75;16.65;;;2.40;99.90;;;;;;5047918;28;20036;-84
2022/11/20 06:30:14;;;;;;;73.95;67.45;;;2.40;99.90;;;;;;5027400;28;20040;-83
2022/11/20 06:32:40;;;;;;;31.00;29.52;;;2.50;99.90;;;;;;5026904;28;20116;-84
2022/11/20 06:35:06;;;;;;;54.30;51.70;;;2.50;99.90;;;;;;5047910;28;20126;-81
2022/11/20 06:37:31;;;;;;;42.60;40.20;;;2.50;99.90;;;;;;5048188;28;20043;-87
2022/11/20 06:39:57;;;;;;;23.35;21.52;;;2.60;99.90;;;;;;5011549;28;20071;-85
2022/11/20 06:42:22;;;;;;;40.42;38.47;;;2.60;99.90;;;;;;5028105;28;20518;-85
2022/11/20 06:44:48;;;;;;;19.73;18.30;;;2.60;99.90;;;;;;5031663;28;20035;-82
2022/11/20 06:47:14;;;;;;;24.20;22.40;;;2.70;99.90;;;;;;5031231;28;20926;-83
2022/11/20 06:49:39;;;;;;;21.38;20.10;;;2.70;99.90;;;;;;5046911;28;20026;-83
2022/11/20 06:52:05;;;;;;;109.13;103.57;;;2.70;99.90;;;;;;5051645;28;20499;-85
2022/11/20 06:54:31;;;;;;;18.48;17.23;;;2.70;99.90;;;;;;5038999;28;20086;-84
2022/11/20 06:56:58;;;;;;;25.17;23.85;;;2.70;99.90;;;;;;5062973;28;20040;-81
2022/11/20 06:59:24;;;;;;;45.55;43.20;;;2.70;99.90;;;;;;5052788;28;20113;-88
2022/11/20 07:01:49;;;;;;;81.75;74.38;;;2.80;99.90;;;;;;5046238;28;20496;-81
2022/11/20 07:04:16;;;;;;;24.08;22.55;;;2.80;99.90;;;;;;5043717;28;20934;-83
2022/11/20 07:06:43;;;;;;;37.25;35.17;;;2.80;99.90;;;;;;5049245;28;20029;-82
2022/11/20 07:09:09;;;;;;;23.27;21.95;;;2.80;99.90;;;;;;5033584;28;20071;-80
2022/11/20 07:11:35;;;;;;;41.83;39.78;;;2.80;99.90;;;;;;5024701;28;20056;-82
2022/11/20 07:14:02;;;;;;;25.70;24.20;;;2.80;99.90;;;;;;5029603;28;20427;-81
2022/11/20 07:16:27;;;;;;;28.25;26.50;;;2.70;99.90;;;;;;5032986;28;20029;-83
2022/11/20 07:18:53;;;;;;;24.40;22.60;;;2.80;99.90;;;;;;5042439;28;20036;-81
2022/11/20 07:21:20;;;;;;;34.17;32.40;;;2.80;99.90;;;;;;5053148;28;20036;-85
2022/11/20 07:23:46;;;;;;;22.85;21.20;;;2.80;99.90;;;;;;5055366;28;20029;-83
2022/11/20 07:26:13;;;;;;;32.15;30.02;;;2.80;99.90;;;;;;5046354;28;20102;-82
2022/11/20 07:28:38;;;;;;;22.20;20.90;;;2.80;99.90;;;;;;5058016;28;20028;-81
2022/11/20 07:31:06;;;;;;;18.65;17.60;;;2.80;99.90;;;;;;5049549;28;20032;-86
2022/11/20 07:33:32;;;;;;;18.40;17.42;;;2.90;99.90;;;;;;5057662;28;20021;-83
2022/11/20 07:36:01;;;;;;;65.72;53.60;;;2.90;99.90;;;;;;5058270;28;20195;-80
2022/11/20 07:38:27;;;;;;;15.68;14.32;;;3.00;99.90;;;;;;5030042;28;20029;-79
2022/11/20 07:41:01;;;;;;;29.85;28.10;;;3.10;99.90;;;;;;5049179;28;20032;-83
2022/11/20 07:43:27;;;;;;;40.78;37.95;;;3.20;99.90;;;;;;5044901;28;20021;-79
2022/11/20 07:45:56;;;;;;;48.47;45.70;;;3.20;99.90;;;;;;5030649;28;20082;-79
2022/11/20 07:48:22;;;;;;;20.80;19.40;;;3.30;99.90;;;;;;5046856;28;20667;-80
2022/11/20 07:50:47;;;;;;;39.67;37.80;;;3.40;99.90;;;;;;5019443;28;20067;-83
2022/11/20 07:53:20;;;;;;;40.53;38.53;;;3.50;99.90;;;;;;5041787;28;20157;-86
2022/11/20 07:55:46;;;;;;;23.35;21.95;;;3.60;99.90;;;;;;5040695;28;20043;-84
2022/11/20 07:58:12;;;;;;;111.15;102.93;;;3.60;99.90;;;;;;5046918;28;20120;-83
2022/11/20 08:00:37;;;;;;;16.45;15.00;;;3.70;99.90;;;;;;5044403;28;20041;-81
2022/11/20 08:03:06;;;;;;;26.15;24.95;;;3.90;99.90;;;;;;5063972;28;20032;-78
2022/11/20 08:05:32;;;;;;;53.70;51.15;;;3.90;99.90;;;;;;5038153;28;20111;-80
2022/11/20 08:07:58;;;;;;;65.65;54.53;;;3.90;99.90;;;;;;5049457;28;20058;-82
2022/11/20 08:10:24;;;;;;;20.77;19.38;;;4.00;99.90;;;;;;5055630;28;20107;-81
2022/11/20 08:15:41;;;;;;;20.10;18.50;;;4.10;99.90;;;;;;5051962;28;20453;-77
2022/11/20 08:18:12;;;;;;;14.75;13.60;;;4.30;99.90;;;;;;5061216;28;20479;-82
2022/11/20 08:20:38;;;;;;;;;;;4.30;99.90;;;;;;5037842;28;20099;-82
2022/11/20 08:23:07;;;;;;;26.60;24.90;;;4.40;99.90;;;;;;5034458;28;19913;-83
2022/11/20 08:25:35;;;;;;;24.00;22.65;;;4.50;99.90;;;;;;5060003;28;20021;-79
2022/11/20 08:28:03;;;;;;;68.43;49.35;;;4.60;99.90;;;;;;5037291;28;20044;-82
2022/11/20 08:30:29;;;;;;;58.00;41.53;;;4.50;99.90;;;;;;5052113;28;20032;-83
2022/11/20 08:32:54;;;;;;;16.52;15.68;;;4.50;99.90;;;;;;5043768;28;20506;-82
2022/11/20 08:35:23;;;;;;;14.35;13.55;;;4.50;99.90;;;;;;5039687;28;20047;-84
2022/11/20 08:37:49;;;;;;;12.38;11.77;;;4.50;99.90;;;;;;5034991;28;20453;-84
2022/11/20 08:40:15;;;;;;;18.98;17.77;;;4.60;99.90;;;;;;5063709;28;20029;-83
2022/11/20 08:42:49;;;;;;;30.35;28.75;;;4.70;99.90;;;;;;5036232;28;20083;-84
2022/11/20 08:45:15;;;;;;;11.90;11.30;;;4.70;99.90;;;;;;5060766;28;20119;-80
2022/11/20 08:47:41;;;;;;;17.70;16.60;;;4.80;99.90;;;;;;5060328;28;20035;-83
2022/11/20 08:50:11;;;;;;;59.03;54.30;;;5.10;99.90;;;;;;5053458;28;20033;-83
2022/11/20 08:52:37;;;;;;;12.55;11.93;;;5.30;99.90;;;;;;5055569;28;20048;-84
2022/11/20 08:55:05;;;;;;;12.07;11.05;;;5.60;99.90;;;;;;5052716;28;20079;-82
2022/11/20 08:57:35;;;;;;;68.50;45.78;;;5.70;99.90;;;;;;5039925;28;20034;-80
2022/11/20 09:00:02;;;;;;;169.90;128.48;;;5.70;99.90;;;;;;5056538;28;20025;-83
2022/11/20 09:02:28;;;;;;;17.52;8.73;;;6.00;99.90;;;;;;5040225;28;20067;-84
2022/11/20 09:04:54;;;;;;;10.13;9.63;;;6.00;99.30;;;;;;5056368;28;20048;-78
2022/11/20 09:07:20;;;;;;;88.22;78.65;;;6.10;99.40;;;;;;5057392;28;20067;-82
2022/11/20 09:09:48;;;;;;;113.85;104.05;;;6.00;98.10;;;;;;5049333;28;20068;-89
2022/11/20 09:12:14;;;;;;;9.00;8.50;;;5.70;98.20;;;;;;5062991;28;20029;-77
2022/11/20 09:14:39;;;;;;;9.65;8.93;;;5.90;99.00;;;;;;5025939;28;20172;-77
2022/11/20 09:17:07;;;;;;;43.45;30.33;;;5.90;98.90;;;;;;5029994;28;20040;-81
2022/11/20 09:19:33;;;;;;;7.28;6.90;;;5.90;97.80;;;;;;5045444;28;20033;-80
2022/11/20 09:21:59;;;;;;;9.20;8.70;;;5.80;98.70;;;;;;5052429;28;20120;-78
2022/11/20 09:24:26;;;;;;;20.65;19.65;;;5.70;98.70;;;;;;5052046;28;20168;-79
2022/11/20 09:26:51;;;;;;;199.88;132.38;;;5.70;98.10;;;;;;5033757;28;20127;-81
2022/11/20 09:29:17;;;;;;;13.80;12.85;;;5.60;97.60;;;;;;5040761;28;20116;-83
2022/11/20 09:31:43;;;;;;;8.20;7.70;;;5.70;98.10;;;;;;5015760;28;20026;-80
2022/11/20 09:34:09;;;;;;;41.38;38.42;;;5.70;98.20;;;;;;5042920;28;20488;-82
2022/11/20 09:36:36;;;;;;;7.72;7.03;;;5.70;97.50;;;;;;5059165;28;20387;-81
2022/11/20 09:39:01;;;;;;;14.18;13.48;;;5.70;97.60;;;;;;5040389;28;20037;-79
2022/11/20 09:42:13;;;;;;;9.90;9.30;;;5.80;96.90;;;;;;5027628;28;20503;-77
2022/11/20 09:44:57;;;;;;;6.30;6.00;;;5.80;96.90;;;;;;5045847;28;20045;-84
2022/11/20 09:47:37;;;;;;;6.32;6.00;;;5.80;96.70;;;;;;5061497;28;20025;-78
2022/11/20 09:50:34;;;;;;;13.02;12.20;;;5.80;96.30;;;;;;5043387;28;20120;-77
2022/11/20 09:53:24;;;;;;;24.15;22.73;;;5.80;97.00;;;;;;5049421;28;20066;-85
2022/11/20 09:55:51;;;;;;;189.45;84.68;;;5.60;95.90;;;;;;5038852;28;20119;-82
2022/11/20 09:58:35;;;;;;;14.57;13.13;;;5.60;96.20;;;;;;5048377;28;20037;-79
2022/11/20 10:01:14;;;;;;;23.00;21.65;;;5.70;96.80;;;;;;5036763;28;20133;-83
2022/11/20 10:03:51;;;;;;;9.43;8.95;;;5.80;95.80;;;;;;5029548;28;20032;-84
2022/11/20 10:06:22;;;;;;;8.40;7.90;;;5.80;95.40;;;;;;5049169;28;20029;-82
2022/11/20 10:09:14;;;;;;;7.78;7.28;;;5.90;96.10;;;;;;5037585;28;20037;-82
2022/11/20 10:12:05;;;;;;;6.63;6.22;;;6.00;95.60;;;;;;5056059;28;20034;-79
2022/11/20 10:14:54;;;;;;;7.07;6.65;;;6.00;95.10;;;;;;5053362;28;20383;-81
2022/11/20 10:17:52;;;;;;;6.00;5.60;;;5.90;94.60;;;;;;5040878;28;20029;-78
2022/11/20 10:20:36;;;;;;;6.45;6.05;;;6.00;94.90;;;;;;4969684;28;20744;-77
2022/11/20 10:23:28;;;;;;;7.15;6.75;;;6.10;95.10;;;;;;5050086;28;20114;-77
2022/11/20 10:26:25;;;;;;;5.40;5.10;;;6.10;94.70;;;;;;5038443;28;20033;-81
2022/11/20 10:29:16;;;;;;;7.20;6.65;;;6.10;95.00;;;;;;5043872;28;20087;-81
2022/11/20 10:31:46;;;;;;;6.93;6.63;;;6.20;94.90;;;;;;5045620;28;20035;-79
2022/11/20 10:34:41;;;;;;;7.03;6.47;;;6.10;95.00;;;;;;5048867;28;20032;-79
2022/11/20 10:37:16;;;;;;;7.95;7.55;;;6.00;94.70;;;;;;5035909;28;20060;-80
2022/11/20 10:40:24;;;;;;;48.88;35.50;;;6.00;94.50;;;;;;5027207;28;20128;-78
2022/11/20 10:43:04;;;;;;;7.05;6.60;;;6.00;95.40;;;;;;5048377;28;20629;-81
2022/11/20 10:45:37;;;;;;;10.98;10.43;;;6.00;95.10;;;;;;5038951;28;20037;-79
2022/11/20 10:48:25;;;;;;;7.63;7.03;;;5.90;95.00;;;;;;5042484;28;20568;-76
2022/11/20 10:51:26;;;;;;;64.85;36.85;;;6.10;94.90;;;;;;5040028;28;20124;-83
2022/11/20 10:54:11;;;;;;;21.23;20.20;;;6.10;94.10;;;;;;5044849;28;20028;-79
2022/11/20 10:56:41;;;;;;;6.20;5.90;;;6.10;94.10;;;;;;5048142;28;20029;-77
2022/11/20 10:59:42;;;;;;;34.97;26.92;;;6.10;95.30;;;;;;5032691;28;20028;-80
2022/11/20 11:02:50;;;;;;;14.40;13.63;;;5.90;95.40;;;;;;5047152;28;20095;-82
2022/11/20 11:05:35;;;;;;;21.58;20.40;;;5.80;96.10;;;;;;5011014;28;20066;-77
2022/11/20 11:08:02;;;;;;;14.40;13.52;;;5.80;95.60;;;;;;5029224;28;20029;-82
2022/11/20 11:10:47;;;;;;;14.95;14.25;;;5.70;95.80;;;;;;5046720;28;20060;-81
2022/11/20 11:13:21;;;;;;;9.50;9.10;;;5.80;95.50;;;;;;5026710;28;20121;-79
2022/11/20 11:15:47;;;;;;;13.82;12.98;;;5.80;96.10;;;;;;5048477;28;20483;-79
2022/11/20 11:18:26;;;;;;;8.35;7.97;;;5.80;95.60;;;;;;5043448;28;20029;-81
2022/11/20 11:20:53;;;;;;;8.95;8.48;;;5.70;95.50;;;;;;5031359;28;20032;-81
2022/11/20 11:23:45;;;;;;;27.27;26.10;;;5.70;95.60;;;;;;5038817;28;20032;-79
2022/11/20 11:26:23;;;;;;;7.40;7.00;;;5.70;95.40;;;;;;5043137;28;20124;-77
2022/11/20 11:29:03;;;;;;;6.75;6.35;;;5.80;95.80;;;;;;5045503;28;20033;-75
2022/11/20 11:31:31;;;;;;;7.05;6.30;;;5.90;95.50;;;;;;5015597;28;20131;-76
2022/11/20 11:34:14;;;;;;;18.95;18.05;;;5.90;95.90;;;;;;5039669;28;20037;-76
2022/11/20 11:36:40;;;;;;;52.15;31.50;;;5.80;95.50;;;;;;5044326;28;20025;-79
2022/11/20 11:39:13;;;;;;;6.90;6.55;;;5.80;95.40;;;;;;5048006;28;20064;-79
2022/11/20 11:41:39;;;;;;;30.15;28.75;;;5.90;95.60;;;;;;5031230;28;20087;-79
2022/11/20 11:47:23;;;;;;;6.57;6.18;;;6.30;95.10;;;;;;5039838;28;20102;-76
2022/11/20 11:49:49;;;;;;;;;;;6.60;94.70;;;;;;5047769;28;20029;-78
2022/11/20 11:52:19;;;;;;;6.20;5.70;;;6.50;94.50;;;;;;5061860;28;19920;-78
2022/11/20 11:54:53;;;;;;;6.23;5.83;;;6.40;95.00;;;;;;5065803;28;20115;-78
2022/11/20 11:57:37;;;;;;;13.05;12.40;;;6.40;95.60;;;;;;5063405;28;20310;-79
2022/11/20 12:00:20;;;;;;;22.83;21.70;;;6.30;95.30;;;;;;5042082;28;20091;-77
2022/11/20 12:02:57;;;;;;;10.95;10.35;;;6.20;96.10;;;;;;5066597;28;20064;-78
2022/11/20 12:05:45;;;;;;;9.45;8.95;;;6.20;96.60;;;;;;5065158;28;20795;-77
2022/11/20 12:08:25;;;;;;;130.25;56.10;;;6.20;96.80;;;;;;5067755;28;20475;-78
2022/11/20 12:11:03;;;;;;;10.43;9.90;;;6.20;96.10;;;;;;5062255;28;20486;-78
2022/11/20 12:14:01;;;;;;;12.35;11.75;;;6.20;96.00;;;;;;5065354;28;20033;-76
2022/11/20 12:16:28;;;;;;;6.38;5.97;;;6.20;96.30;;;;;;5047096;28;20033;-79
2022/11/20 12:18:54;;;;;;;12.40;11.77;;;6.40;95.70;;;;;;5070702;28;20043;-76
2022/11/20 12:21:27;;;;;;;15.13;14.43;;;6.60;95.50;;;;;;5053760;28;20036;-77
2022/11/20 12:24:02;;;;;;;7.70;7.40;;;6.60;95.20;;;;;;5044485;28;20028;-77
2022/11/20 12:26:31;;;;;;;7.05;6.65;;;6.60;95.30;;;;;;5065146;28;20482;-77
2022/11/20 12:29:10;;;;;;;89.88;72.40;;;6.80;95.20;;;;;;5071478;28;20032;-75
2022/11/20 12:31:50;;;;;;;10.23;9.73;;;6.60;94.40;;;;;;5044436;28;20406;-79
2022/11/20 12:34:39;;;;;;;8.75;8.27;;;6.50;94.30;;;;;;5070558;28;20457;-77
2022/11/20 12:37:36;;;;;;;8.02;7.63;;;6.40;95.00;;;;;;5065299;28;20028;-77
2022/11/20 12:40:26;;;;;;;10.48;9.77;;;6.50;95.50;;;;;;5029112;28;20045;-76
2022/11/20 12:46:14;;;;;;;26.65;25.30;;;5.90;97.70;;;;;;5069012;28;20292;-77
2022/11/20 12:48:45;;;;;;;103.20;55.53;;;5.30;99.90;;;;;;5058842;28;20052;-77
2022/11/20 12:51:39;;;;;;;64.47;55.42;;;4.90;99.90;;;;;;5067360;28;20052;-77
2022/11/20 12:54:29;;;;;;;62.38;35.35;;;4.60;99.90;;;;;;5005685;28;20099;-77
2022/11/20 12:57:33;;;;;;;23.20;22.15;;;4.60;99.90;;;;;;5044851;28;20025;-77
2022/11/20 13:00:19;;;;;;;22.40;21.55;;;4.60;99.90;;;;;;5055620;28;20075;-77
2022/11/20 13:02:54;;;;;;;30.40;29.20;;;4.70;99.90;;;;;;5060136;28;20025;-76
2022/11/20 13:05:27;;;;;;;20.45;19.65;;;4.60;99.90;;;;;;5051440;28;20030;-77
2022/11/20 13:07:54;;;;;;;19.83;18.90;;;4.70;99.90;;;;;;5029553;28;20025;-77
2022/11/20 13:10:43;;;;;;;16.42;15.75;;;4.70;99.90;;;;;;5068859;28;20546;-79
2022/11/20 13:13:20;;;;;;;38.95;36.83;;;4.70;99.90;;;;;;5054946;28;20048;-79